sensor_id;sensor_type;location;lat;lon;timestamp;pressure;altitude;pressure_sealevel;temperature;humidity
76794;BME280;65745;50.278;18.192;2024-03-02T00:00:36;99057.65;;;8.90;100.00
76794;BME280;65745;50.278;18.192;2024-03-02T00:03:28;99058.10;;;8.85;100.00
76794;BME280;65745;50.278;18.192;2024-03-02T00:06:00;99054.11;;;8.83;100.00
76794;BME280;65745;50.278;18.192;2024-03-02T00:08:33;99048.41;;;8.80;100.00
76794;BME280;65745;50.278;18.192;2024-03-02T00:11:05;99044.59;;;8.77;100.00
76794;BME280;65745;50.278;18.192;2024-03-02T00:13:38;99038.86;;;8.72;100.00
76794;BME280;65745;50.278;18.192;2024-03-02T00:16:11;99038.33;;;8.70;100.00
76794;BME280;65745;50.278;18.192;2024-03-02T00:18:43;99041.37;;;8.66;100.00
76794;BME280;65745;50.278;18.192;2024-03-02T00:21:16;99039.95;;;8.62;100.00
76794;BME280;65745;50.278;18.192;2024-03-02T00:23:51;99035.95;;;8.61;100.00
76794;BME280;65745;50.278;18.192;2024-03-02T00:26:26;99034.77;;;8.61;100.00
76794;BME280;65745;50.278;18.192;2024-03-02T00:28:58;99035.50;;;8.64;100.00
76794;BME280;65745;50.278;18.192;2024-03-02T00:31:31;99031.45;;;8.69;100.00
76794;BME280;65745;50.278;18.192;2024-03-02T00:34:07;99026.51;;;8.73;100.00
76794;BME280;65745;50.278;18.192;2024-03-02T00:36:42;99017.55;;;8.69;100.00
76794;BME280;65745;50.278;18.192;2024-03-02T00:39:16;99023.85;;;8.65;100.00
76794;BME280;65745;50.278;18.192;2024-03-02T00:41:49;99027.97;;;8.66;100.00
76794;BME280;65745;50.278;18.192;2024-03-02T00:44:25;99026.27;;;8.68;100.00
76794;BME280;65745;50.278;18.192;2024-03-02T00:47:00;99024.58;;;8.69;100.00
76794;BME280;65745;50.278;18.192;2024-03-02T00:49:33;99024.08;;;8.70;100.00
76794;BME280;65745;50.278;18.192;2024-03-02T00:52:10;99022.61;;;8.63;100.00
76794;BME280;65745;50.278;18.192;2024-03-02T00:54:43;99022.08;;;8.62;100.00
76794;BME280;65745;50.278;18.192;2024-03-02T00:57:16;99021.91;;;8.62;100.00
76794;BME280;65745;50.278;18.192;2024-03-02T00:59:49;99020.23;;;8.64;100.00
76794;BME280;65745;50.278;18.192;2024-03-02T01:02:21;99019.04;;;8.64;100.00
76794;BME280;65745;50.278;18.192;2024-03-02T01:04:53;99019.21;;;8.66;100.00
76794;BME280;65745;50.278;18.192;2024-03-02T01:07:26;99021.30;;;8.67;100.00
76794;BME280;65745;50.278;18.192;2024-03-02T01:09:58;99017.73;;;8.70;100.00
76794;BME280;65745;50.278;18.192;2024-03-02T01:12:31;99015.36;;;8.74;100.00
76794;BME280;65745;50.278;18.192;2024-03-02T01:15:04;99016.61;;;8.64;100.00
76794;BME280;65745;50.278;18.192;2024-03-02T01:17:39;99022.42;;;8.62;100.00
76794;BME280;65745;50.278;18.192;2024-03-02T01:20:12;99022.60;;;8.63;100.00
76794;BME280;65745;50.278;18.192;2024-03-02T01:22:44;99019.48;;;8.60;100.00
76794;BME280;65745;50.278;18.192;2024-03-02T01:25:18;99014.08;;;8.54;100.00
76794;BME280;65745;50.278;18.192;2024-03-02T01:27:50;99006.33;;;8.52;100.00
76794;BME280;65745;50.278;18.192;2024-03-02T01:30:23;99010.97;;;8.53;100.00
76794;BME280;65745;50.278;18.192;2024-03-02T01:32:55;99016.08;;;8.50;100.00
76794;BME280;65745;50.278;18.192;2024-03-02T01:35:30;99015.07;;;8.51;100.00
76794;BME280;65745;50.278;18.192;2024-03-02T01:38:02;99014.27;;;8.55;100.00
76794;BME280;65745;50.278;18.192;2024-03-02T01:40:35;99010.14;;;8.54;100.00
76794;BME280;65745;50.278;18.192;2024-03-02T01:43:07;99010.23;;;8.49;100.00
76794;BME280;65745;50.278;18.192;2024-03-02T01:45:40;99009.98;;;8.42;100.00
76794;BME280;65745;50.278;18.192;2024-03-02T01:48:12;99012.08;;;8.34;100.00
76794;BME280;65745;50.278;18.192;2024-03-02T01:50:44;99015.85;;;8.24;100.00
76794;BME280;65745;50.278;18.192;2024-03-02T01:53:16;99013.92;;;8.22;100.00
76794;BME280;65745;50.278;18.192;2024-03-02T01:55:50;99013.54;;;8.19;100.00
76794;BME280;65745;50.278;18.192;2024-03-02T01:58:22;99008.91;;;8.20;100.00
76794;BME280;65745;50.278;18.192;2024-03-02T02:00:54;99011.58;;;8.14;100.00
76794;BME280;65745;50.278;18.192;2024-03-02T02:03:27;99006.55;;;8.09;100.00
76794;BME280;65745;50.278;18.192;2024-03-02T02:05:59;99008.42;;;8.10;100.00
76794;BME280;65745;50.278;18.192;2024-03-02T02:08:31;99007.04;;;8.09;100.00
76794;BME280;65745;50.278;18.192;2024-03-02T02:11:04;99009.34;;;8.13;100.00
76794;BME280;65745;50.278;18.192;2024-03-02T02:13:37;99009.52;;;8.14;100.00
76794;BME280;65745;50.278;18.192;2024-03-02T02:16:10;99004.36;;;8.13;100.00
76794;BME280;65745;50.278;18.192;2024-03-02T02:18:42;99003.92;;;8.06;100.00
76794;BME280;65745;50.278;18.192;2024-03-02T02:21:14;99007.33;;;8.05;100.00
76794;BME280;65745;50.278;18.192;2024-03-02T02:23:47;99013.73;;;8.07;100.00
76794;BME280;65745;50.278;18.192;2024-03-02T02:26:19;99016.64;;;8.09;100.00
76794;BME280;65745;50.278;18.192;2024-03-02T02:28:51;99016.48;;;8.10;100.00
76794;BME280;65745;50.278;18.192;2024-03-02T02:31:24;99010.59;;;8.05;100.00
76794;BME280;65745;50.278;18.192;2024-03-02T02:33:56;99009.52;;;8.01;100.00
76794;BME280;65745;50.278;18.192;2024-03-02T02:36:29;99007.06;;;7.99;100.00
76794;BME280;65745;50.278;18.192;2024-03-02T02:39:03;99005.27;;;7.94;100.00
76794;BME280;65745;50.278;18.192;2024-03-02T02:41:37;99005.73;;;7.90;100.00
76794;BME280;65745;50.278;18.192;2024-03-02T02:44:10;99007.06;;;7.89;100.00
76794;BME280;65745;50.278;18.192;2024-03-02T02:46:43;99005.61;;;7.84;100.00
76794;BME280;65745;50.278;18.192;2024-03-02T02:49:16;99003.01;;;7.81;100.00
76794;BME280;65745;50.278;18.192;2024-03-02T02:51:48;98996.45;;;7.80;100.00
76794;BME280;65745;50.278;18.192;2024-03-02T02:54:20;98993.17;;;7.77;100.00
76794;BME280;65745;50.278;18.192;2024-03-02T02:56:53;98989.55;;;7.76;100.00
76794;BME280;65745;50.278;18.192;2024-03-02T02:59:25;98993.47;;;7.75;100.00
76794;BME280;65745;50.278;18.192;2024-03-02T03:01:57;98995.81;;;7.72;100.00
76794;BME280;65745;50.278;18.192;2024-03-02T03:04:29;99001.73;;;7.66;100.00
76794;BME280;65745;50.278;18.192;2024-03-02T03:07:02;98995.44;;;7.60;100.00
76794;BME280;65745;50.278;18.192;2024-03-02T03:09:34;99001.07;;;7.58;100.00
76794;BME280;65745;50.278;18.192;2024-03-02T03:12:10;98999.03;;;7.59;100.00
76794;BME280;65745;50.278;18.192;2024-03-02T03:14:43;98996.04;;;7.55;100.00
76794;BME280;65745;50.278;18.192;2024-03-02T03:17:15;98991.63;;;7.47;100.00
76794;BME280;65745;50.278;18.192;2024-03-02T03:19:49;98986.93;;;7.43;100.00
76794;BME280;65745;50.278;18.192;2024-03-02T03:22:21;98985.49;;;7.39;100.00
76794;BME280;65745;50.278;18.192;2024-03-02T03:24:53;98986.80;;;7.36;100.00
76794;BME280;65745;50.278;18.192;2024-03-02T03:27:26;98987.08;;;7.32;100.00
76794;BME280;65745;50.278;18.192;2024-03-02T03:29:58;98989.20;;;7.26;100.00
76794;BME280;65745;50.278;18.192;2024-03-02T03:32:31;98986.05;;;7.23;100.00
76794;BME280;65745;50.278;18.192;2024-03-02T03:35:03;98987.06;;;7.22;100.00
76794;BME280;65745;50.278;18.192;2024-03-02T03:37:37;98984.95;;;7.18;100.00
76794;BME280;65745;50.278;18.192;2024-03-02T03:40:10;98984.95;;;7.10;100.00
76794;BME280;65745;50.278;18.192;2024-03-02T03:42:43;98987.66;;;6.99;100.00
76794;BME280;65745;50.278;18.192;2024-03-02T03:45:15;98989.94;;;6.93;100.00
76794;BME280;65745;50.278;18.192;2024-03-02T03:47:48;98990.02;;;6.88;100.00
76794;BME280;65745;50.278;18.192;2024-03-02T03:50:20;98998.54;;;6.87;100.00
76794;BME280;65745;50.278;18.192;2024-03-02T03:52:52;98996.73;;;6.81;100.00
76794;BME280;65745;50.278;18.192;2024-03-02T03:55:25;99001.73;;;6.75;100.00
76794;BME280;65745;50.278;18.192;2024-03-02T03:57:57;99006.10;;;6.71;100.00
76794;BME280;65745;50.278;18.192;2024-03-02T04:00:30;99004.58;;;6.72;100.00
76794;BME280;65745;50.278;18.192;2024-03-02T04:03:02;99004.89;;;6.71;100.00
76794;BME280;65745;50.278;18.192;2024-03-02T04:05:35;99009.27;;;6.67;100.00
76794;BME280;65745;50.278;18.192;2024-03-02T04:08:07;99011.40;;;6.63;100.00
76794;BME280;65745;50.278;18.192;2024-03-02T04:10:39;99014.64;;;6.63;100.00
76794;BME280;65745;50.278;18.192;2024-03-02T04:13:13;99015.98;;;6.61;100.00
76794;BME280;65745;50.278;18.192;2024-03-02T04:15:45;99017.17;;;6.61;100.00
76794;BME280;65745;50.278;18.192;2024-03-02T04:18:17;99016.15;;;6.61;100.00
76794;BME280;65745;50.278;18.192;2024-03-02T04:20:49;99018.00;;;6.60;100.00
76794;BME280;65745;50.278;18.192;2024-03-02T04:23:24;99020.80;;;6.62;100.00
76794;BME280;65745;50.278;18.192;2024-03-02T04:25:56;99022.45;;;6.60;100.00
76794;BME280;65745;50.278;18.192;2024-03-02T04:28:28;99025.20;;;6.60;100.00
76794;BME280;65745;50.278;18.192;2024-03-02T04:31:01;99028.64;;;6.61;100.00
76794;BME280;65745;50.278;18.192;2024-03-02T04:33:33;99031.69;;;6.60;100.00
76794;BME280;65745;50.278;18.192;2024-03-02T04:36:06;99030.98;;;6.58;100.00
76794;BME280;65745;50.278;18.192;2024-03-02T04:38:40;99031.09;;;6.56;100.00
76794;BME280;65745;50.278;18.192;2024-03-02T04:41:12;99027.63;;;6.54;100.00
76794;BME280;65745;50.278;18.192;2024-03-02T04:43:45;99029.95;;;6.50;100.00
76794;BME280;65745;50.278;18.192;2024-03-02T04:46:17;99025.47;;;6.49;100.00
76794;BME280;65745;50.278;18.192;2024-03-02T04:48:49;99031.26;;;6.49;100.00
76794;BME280;65745;50.278;18.192;2024-03-02T04:51:26;99032.36;;;6.51;100.00
76794;BME280;65745;50.278;18.192;2024-03-02T04:53:59;99034.77;;;6.51;100.00
76794;BME280;65745;50.278;18.192;2024-03-02T04:56:31;99032.58;;;6.52;100.00
76794;BME280;65745;50.278;18.192;2024-03-02T04:59:21;99031.39;;;6.54;100.00
76794;BME280;65745;50.278;18.192;2024-03-02T05:01:53;99034.68;;;6.47;100.00
76794;BME280;65745;50.278;18.192;2024-03-02T05:04:25;99031.73;;;6.46;100.00
76794;BME280;65745;50.278;18.192;2024-03-02T05:06:58;99032.17;;;6.43;100.00
76794;BME280;65745;50.278;18.192;2024-03-02T05:09:30;99029.52;;;6.39;100.00
76794;BME280;65745;50.278;18.192;2024-03-02T05:12:03;99030.60;;;6.33;100.00
76794;BME280;65745;50.278;18.192;2024-03-02T05:14:54;99029.14;;;6.29;100.00
76794;BME280;65745;50.278;18.192;2024-03-02T05:17:27;99030.14;;;6.29;100.00
76794;BME280;65745;50.278;18.192;2024-03-02T05:19:59;99033.75;;;6.29;100.00
76794;BME280;65745;50.278;18.192;2024-03-02T05:22:32;99037.66;;;6.28;100.00
76794;BME280;65745;50.278;18.192;2024-03-02T05:25:06;99038.77;;;6.25;100.00
76794;BME280;65745;50.278;18.192;2024-03-02T05:27:41;99038.66;;;6.20;100.00
76794;BME280;65745;50.278;18.192;2024-03-02T05:30:14;99038.56;;;6.15;100.00
76794;BME280;65745;50.278;18.192;2024-03-02T05:32:46;99042.00;;;6.08;100.00
76794;BME280;65745;50.278;18.192;2024-03-02T05:35:19;99044.63;;;6.04;100.00
76794;BME280;65745;50.278;18.192;2024-03-02T05:37:51;99047.26;;;6.07;100.00
76794;BME280;65745;50.278;18.192;2024-03-02T05:40:23;99048.02;;;6.11;100.00
76794;BME280;65745;50.278;18.192;2024-03-02T05:42:55;99050.44;;;6.11;100.00
76794;BME280;65745;50.278;18.192;2024-03-02T05:45:28;99052.83;;;6.11;100.00
76794;BME280;65745;50.278;18.192;2024-03-02T05:48:00;99050.25;;;6.11;100.00
76794;BME280;65745;50.278;18.192;2024-03-02T05:50:33;99052.19;;;6.06;100.00
76794;BME280;65745;50.278;18.192;2024-03-02T05:53:05;99049.73;;;6.04;100.00
76794;BME280;65745;50.278;18.192;2024-03-02T05:55:38;99052.07;;;6.02;100.00
76794;BME280;65745;50.278;18.192;2024-03-02T05:58:10;99052.77;;;5.94;100.00
76794;BME280;65745;50.278;18.192;2024-03-02T06:00:56;99048.58;;;5.91;100.00
76794;BME280;65745;50.278;18.192;2024-03-02T06:03:29;99053.17;;;5.90;100.00
76794;BME280;65745;50.278;18.192;2024-03-02T06:06:01;99061.95;;;5.92;100.00
76794;BME280;65745;50.278;18.192;2024-03-02T06:08:34;99068.14;;;5.88;100.00
76794;BME280;65745;50.278;18.192;2024-03-02T06:11:07;99072.75;;;5.88;100.00
76794;BME280;65745;50.278;18.192;2024-03-02T06:13:39;99071.32;;;5.92;100.00
76794;BME280;65745;50.278;18.192;2024-03-02T06:16:12;99074.19;;;5.97;100.00
76794;BME280;65745;50.278;18.192;2024-03-02T06:18:44;99070.13;;;5.99;100.00
76794;BME280;65745;50.278;18.192;2024-03-02T06:21:16;99062.70;;;5.95;100.00
76794;BME280;65745;50.278;18.192;2024-03-02T06:23:49;99066.17;;;5.98;100.00
76794;BME280;65745;50.278;18.192;2024-03-02T06:26:22;99069.33;;;6.02;100.00
76794;BME280;65745;50.278;18.192;2024-03-02T06:28:56;99068.50;;;5.95;100.00
76794;BME280;65745;50.278;18.192;2024-03-02T06:31:28;99068.79;;;5.93;100.00
76794;BME280;65745;50.278;18.192;2024-03-02T06:34:01;99073.93;;;5.93;100.00
76794;BME280;65745;50.278;18.192;2024-03-02T06:36:35;99067.91;;;5.92;100.00
76794;BME280;65745;50.278;18.192;2024-03-02T06:39:07;99074.58;;;5.99;100.00
76794;BME280;65745;50.278;18.192;2024-03-02T06:41:41;99077.85;;;6.00;100.00
76794;BME280;65745;50.278;18.192;2024-03-02T06:44:14;99083.59;;;6.04;100.00
76794;BME280;65745;50.278;18.192;2024-03-02T06:46:46;99084.78;;;6.11;100.00
76794;BME280;65745;50.278;18.192;2024-03-02T06:49:18;99081.14;;;6.16;100.00
76794;BME280;65745;50.278;18.192;2024-03-02T06:51:50;99080.38;;;6.20;100.00
76794;BME280;65745;50.278;18.192;2024-03-02T06:54:23;99083.65;;;6.21;100.00
76794;BME280;65745;50.278;18.192;2024-03-02T06:56:55;99092.76;;;6.23;100.00
76794;BME280;65745;50.278;18.192;2024-03-02T06:59:27;99090.19;;;6.30;100.00
76794;BME280;65745;50.278;18.192;2024-03-02T07:01:59;99092.08;;;6.37;100.00
76794;BME280;65745;50.278;18.192;2024-03-02T07:04:32;99096.21;;;6.46;100.00
76794;BME280;65745;50.278;18.192;2024-03-02T07:07:05;99104.26;;;6.53;100.00
76794;BME280;65745;50.278;18.192;2024-03-02T07:09:37;99104.74;;;6.59;100.00
76794;BME280;65745;50.278;18.192;2024-03-02T07:12:10;99107.16;;;6.68;100.00
76794;BME280;65745;50.278;18.192;2024-03-02T07:14:42;99112.27;;;6.74;100.00
76794;BME280;65745;50.278;18.192;2024-03-02T07:17:33;99114.48;;;6.82;100.00
76794;BME280;65745;50.278;18.192;2024-03-02T07:20:08;99113.60;;;6.89;100.00
76794;BME280;65745;50.278;18.192;2024-03-02T07:22:40;99117.67;;;6.95;100.00
76794;BME280;65745;50.278;18.192;2024-03-02T07:25:14;99118.34;;;7.02;100.00
76794;BME280;65745;50.278;18.192;2024-03-02T07:27:50;99118.95;;;7.06;100.00
76794;BME280;65745;50.278;18.192;2024-03-02T07:30:24;99121.63;;;7.11;100.00
76794;BME280;65745;50.278;18.192;2024-03-02T07:32:56;99121.44;;;7.18;100.00
76794;BME280;65745;50.278;18.192;2024-03-02T07:35:29;99121.39;;;7.24;100.00
76794;BME280;65745;50.278;18.192;2024-03-02T07:38:03;99125.48;;;7.32;100.00
76794;BME280;65745;50.278;18.192;2024-03-02T07:40:35;99126.29;;;7.38;100.00
76794;BME280;65745;50.278;18.192;2024-03-02T07:43:07;99125.88;;;7.43;100.00
76794;BME280;65745;50.278;18.192;2024-03-02T07:45:40;99122.06;;;7.49;100.00
76794;BME280;65745;50.278;18.192;2024-03-02T07:48:12;99128.69;;;7.55;100.00
76794;BME280;65745;50.278;18.192;2024-03-02T07:50:45;99129.83;;;7.60;99.98
76794;BME280;65745;50.278;18.192;2024-03-02T07:53:17;99135.34;;;7.62;100.00
76794;BME280;65745;50.278;18.192;2024-03-02T07:55:49;99136.30;;;7.68;100.00
76794;BME280;65745;50.278;18.192;2024-03-02T07:58:22;99140.48;;;7.73;100.00
76794;BME280;65745;50.278;18.192;2024-03-02T08:00:54;99143.02;;;7.79;100.00
76794;BME280;65745;50.278;18.192;2024-03-02T08:03:26;99144.30;;;7.83;99.99
76794;BME280;65745;50.278;18.192;2024-03-02T08:05:59;99141.70;;;7.91;99.98
76794;BME280;65745;50.278;18.192;2024-03-02T08:08:32;99144.34;;;7.95;99.89
76794;BME280;65745;50.278;18.192;2024-03-02T08:11:04;99143.60;;;8.01;99.77
76794;BME280;65745;50.278;18.192;2024-03-02T08:13:37;99142.42;;;8.02;99.71
76794;BME280;65745;50.278;18.192;2024-03-02T08:16:10;99139.05;;;8.06;99.59
76794;BME280;65745;50.278;18.192;2024-03-02T08:18:42;99135.92;;;8.13;99.31
76794;BME280;65745;50.278;18.192;2024-03-02T08:21:15;99137.55;;;8.19;99.14
76794;BME280;65745;50.278;18.192;2024-03-02T08:23:48;99133.29;;;8.20;99.03
76794;BME280;65745;50.278;18.192;2024-03-02T08:26:20;99132.85;;;8.24;99.05
76794;BME280;65745;50.278;18.192;2024-03-02T08:28:53;99135.19;;;8.29;98.99
76794;BME280;65745;50.278;18.192;2024-03-02T08:31:25;99134.48;;;8.38;98.86
76794;BME280;65745;50.278;18.192;2024-03-02T08:33:58;99134.28;;;8.47;99.00
76794;BME280;65745;50.278;18.192;2024-03-02T08:36:31;99134.79;;;8.57;98.86
76794;BME280;65745;50.278;18.192;2024-03-02T08:39:03;99136.15;;;8.67;98.77
76794;BME280;65745;50.278;18.192;2024-03-02T08:41:38;99133.05;;;8.78;98.97
76794;BME280;65745;50.278;18.192;2024-03-02T08:44:11;99128.91;;;8.89;98.83
76794;BME280;65745;50.278;18.192;2024-03-02T08:46:43;99131.34;;;9.03;99.06
76794;BME280;65745;50.278;18.192;2024-03-02T08:49:16;99127.65;;;9.11;98.48
76794;BME280;65745;50.278;18.192;2024-03-02T08:51:48;99131.92;;;9.21;98.31
76794;BME280;65745;50.278;18.192;2024-03-02T08:54:26;99127.58;;;9.32;98.31
76794;BME280;65745;50.278;18.192;2024-03-02T08:56:59;99131.12;;;9.41;97.96
76794;BME280;65745;50.278;18.192;2024-03-02T08:59:31;99134.83;;;9.49;97.90
76794;BME280;65745;50.278;18.192;2024-03-02T09:02:04;99138.53;;;9.56;97.55
76794;BME280;65745;50.278;18.192;2024-03-02T09:04:36;99136.38;;;9.63;97.45
76794;BME280;65745;50.278;18.192;2024-03-02T09:07:09;99138.35;;;9.70;97.40
76794;BME280;65745;50.278;18.192;2024-03-02T09:09:41;99128.95;;;9.77;97.00
76794;BME280;65745;50.278;18.192;2024-03-02T09:12:13;99125.48;;;9.90;97.27
76794;BME280;65745;50.278;18.192;2024-03-02T09:14:46;99121.27;;;9.99;97.14
76794;BME280;65745;50.278;18.192;2024-03-02T09:17:19;99121.48;;;10.03;96.91
76794;BME280;65745;50.278;18.192;2024-03-02T09:19:51;99120.49;;;10.07;96.53
76794;BME280;65745;50.278;18.192;2024-03-02T09:22:24;99119.36;;;10.14;96.69
76794;BME280;65745;50.278;18.192;2024-03-02T09:24:56;99113.58;;;10.20;96.31
76794;BME280;65745;50.278;18.192;2024-03-02T09:27:29;99115.84;;;10.23;95.33
76794;BME280;65745;50.278;18.192;2024-03-02T09:30:01;99118.31;;;10.29;95.65
76794;BME280;65745;50.278;18.192;2024-03-02T09:32:34;99115.23;;;10.33;95.47
76794;BME280;65745;50.278;18.192;2024-03-02T09:35:07;99116.85;;;10.41;95.42
76794;BME280;65745;50.278;18.192;2024-03-02T09:37:40;99117.09;;;10.50;95.86
76794;BME280;65745;50.278;18.192;2024-03-02T09:40:13;99115.56;;;10.53;94.12
76794;BME280;65745;50.278;18.192;2024-03-02T09:42:47;99116.08;;;10.51;94.06
76794;BME280;65745;50.278;18.192;2024-03-02T09:45:25;99115.73;;;10.53;93.90
76794;BME280;65745;50.278;18.192;2024-03-02T09:47:57;99118.54;;;10.59;94.49
76794;BME280;65745;50.278;18.192;2024-03-02T09:50:30;99119.29;;;10.67;94.95
76794;BME280;65745;50.278;18.192;2024-03-02T09:53:02;99121.01;;;10.68;94.23
76794;BME280;65745;50.278;18.192;2024-03-02T09:55:35;99125.35;;;10.75;94.63
76794;BME280;65745;50.278;18.192;2024-03-02T09:58:07;99126.23;;;10.76;93.55
76794;BME280;65745;50.278;18.192;2024-03-02T10:00:40;99126.41;;;10.78;94.18
76794;BME280;65745;50.278;18.192;2024-03-02T10:03:14;99129.88;;;10.81;94.53
76794;BME280;65745;50.278;18.192;2024-03-02T10:05:47;99130.94;;;10.82;93.80
76794;BME280;65745;50.278;18.192;2024-03-02T10:08:19;99132.83;;;10.82;93.50
76794;BME280;65745;50.278;18.192;2024-03-02T10:10:52;99130.77;;;10.85;94.11
76794;BME280;65745;50.278;18.192;2024-03-02T10:13:26;99129.23;;;10.89;94.23
76794;BME280;65745;50.278;18.192;2024-03-02T10:16:13;99133.23;;;10.93;94.00
76794;BME280;65745;50.278;18.192;2024-03-02T10:18:45;99132.02;;;10.94;93.38
76794;BME280;65745;50.278;18.192;2024-03-02T10:21:17;99129.44;;;10.93;93.28
76794;BME280;65745;50.278;18.192;2024-03-02T10:23:50;99132.38;;;10.92;93.37
76794;BME280;65745;50.278;18.192;2024-03-02T10:26:23;99132.02;;;10.93;93.21
76794;BME280;65745;50.278;18.192;2024-03-02T10:28:55;99127.90;;;10.95;93.08
76794;BME280;65745;50.278;18.192;2024-03-02T10:31:31;99129.49;;;11.02;93.22
76794;BME280;65745;50.278;18.192;2024-03-02T10:34:04;99128.66;;;11.04;91.72
76794;BME280;65745;50.278;18.192;2024-03-02T10:36:37;99123.69;;;11.12;92.38
76794;BME280;65745;50.278;18.192;2024-03-02T10:39:14;99122.54;;;11.24;92.58
76794;BME280;65745;50.278;18.192;2024-03-02T10:41:47;99121.06;;;11.40;92.68
76794;BME280;65745;50.278;18.192;2024-03-02T10:44:23;99122.68;;;11.59;92.36
76794;BME280;65745;50.278;18.192;2024-03-02T10:46:57;99120.00;;;11.80;91.66
76794;BME280;65745;50.278;18.192;2024-03-02T10:49:31;99116.41;;;11.96;90.21
76794;BME280;65745;50.278;18.192;2024-03-02T10:52:05;99116.10;;;12.10;89.70
76794;BME280;65745;50.278;18.192;2024-03-02T10:54:39;99117.66;;;12.36;90.28
76794;BME280;65745;50.278;18.192;2024-03-02T10:57:16;99117.48;;;12.56;89.60
76794;BME280;65745;50.278;18.192;2024-03-02T10:59:53;99119.38;;;12.71;88.26
76794;BME280;65745;50.278;18.192;2024-03-02T11:02:29;99115.73;;;12.77;88.31
76794;BME280;65745;50.278;18.192;2024-03-02T11:05:06;99114.33;;;12.84;88.76
76794;BME280;65745;50.278;18.192;2024-03-02T11:07:41;99110.52;;;12.89;87.37
76794;BME280;65745;50.278;18.192;2024-03-02T11:10:14;99110.50;;;12.97;88.32
76794;BME280;65745;50.278;18.192;2024-03-02T11:12:56;99110.48;;;13.17;87.43
76794;BME280;65745;50.278;18.192;2024-03-02T11:15:31;99105.45;;;13.17;84.81
76794;BME280;65745;50.278;18.192;2024-03-02T11:18:07;99105.42;;;13.27;87.23
76794;BME280;65745;50.278;18.192;2024-03-02T11:20:41;99098.87;;;13.26;86.41
76794;BME280;65745;50.278;18.192;2024-03-02T11:23:14;99104.58;;;13.26;87.21
76794;BME280;65745;50.278;18.192;2024-03-02T11:25:47;99102.65;;;13.28;86.30
76794;BME280;65745;50.278;18.192;2024-03-02T11:28:36;99096.95;;;13.30;85.61
76794;BME280;65745;50.278;18.192;2024-03-02T11:31:08;99097.08;;;13.38;86.09
76794;BME280;65745;50.278;18.192;2024-03-02T11:33:41;99094.11;;;13.43;86.04
76794;BME280;65745;50.278;18.192;2024-03-02T11:36:14;99093.27;;;13.40;85.14
76794;BME280;65745;50.278;18.192;2024-03-02T11:38:47;99087.02;;;13.42;85.49
76794;BME280;65745;50.278;18.192;2024-03-02T11:41:25;99086.67;;;13.44;85.59
76794;BME280;65745;50.278;18.192;2024-03-02T11:43:58;99083.71;;;13.49;85.58
76794;BME280;65745;50.278;18.192;2024-03-02T11:46:31;99081.81;;;13.49;85.18
76794;BME280;65745;50.278;18.192;2024-03-02T11:49:03;99081.26;;;13.55;85.41
76794;BME280;65745;50.278;18.192;2024-03-02T11:51:37;99079.85;;;13.57;85.62
76794;BME280;65745;50.278;18.192;2024-03-02T11:54:12;99086.22;;;13.65;85.76
76794;BME280;65745;50.278;18.192;2024-03-02T11:56:44;99088.10;;;13.68;84.99
76794;BME280;65745;50.278;18.192;2024-03-02T11:59:17;99083.61;;;13.67;84.70
76794;BME280;65745;50.278;18.192;2024-03-02T12:01:51;99080.83;;;13.70;84.82
76794;BME280;65745;50.278;18.192;2024-03-02T12:04:24;99078.76;;;13.68;84.77
76794;BME280;65745;50.278;18.192;2024-03-02T12:06:58;99083.23;;;13.73;84.92
76794;BME280;65745;50.278;18.192;2024-03-02T12:09:32;99079.07;;;13.74;83.35
76794;BME280;65745;50.278;18.192;2024-03-02T12:12:06;99078.16;;;13.80;83.59
76794;BME280;65745;50.278;18.192;2024-03-02T12:14:39;99078.13;;;13.87;83.36
76794;BME280;65745;50.278;18.192;2024-03-02T12:17:11;99076.00;;;13.93;82.58
76794;BME280;65745;50.278;18.192;2024-03-02T12:19:46;99071.52;;;13.91;81.21
76794;BME280;65745;50.278;18.192;2024-03-02T12:22:19;99071.52;;;13.90;81.49
76794;BME280;65745;50.278;18.192;2024-03-02T12:24:51;99074.27;;;13.93;81.74
76794;BME280;65745;50.278;18.192;2024-03-02T12:27:24;99072.03;;;13.91;80.36
76794;BME280;65745;50.278;18.192;2024-03-02T12:29:56;99069.60;;;13.91;80.68
76794;BME280;65745;50.278;18.192;2024-03-02T12:32:29;99071.82;;;13.95;80.16
76794;BME280;65745;50.278;18.192;2024-03-02T12:35:01;99071.61;;;14.02;79.94
76794;BME280;65745;50.278;18.192;2024-03-02T12:37:43;99070.91;;;14.03;79.54
76794;BME280;65745;50.278;18.192;2024-03-02T12:40:17;99073.16;;;14.03;78.86
76794;BME280;65745;50.278;18.192;2024-03-02T12:42:50;99073.36;;;13.98;78.50
76794;BME280;65745;50.278;18.192;2024-03-02T12:45:23;99071.44;;;14.00;78.79
76794;BME280;65745;50.278;18.192;2024-03-02T12:47:56;99070.40;;;14.02;78.95
76794;BME280;65745;50.278;18.192;2024-03-02T12:50:29;99070.89;;;14.04;78.77
76794;BME280;65745;50.278;18.192;2024-03-02T12:53:05;99072.11;;;14.04;78.17
76794;BME280;65745;50.278;18.192;2024-03-02T12:55:39;99072.81;;;14.03;77.49
76794;BME280;65745;50.278;18.192;2024-03-02T12:58:18;99066.09;;;14.00;76.93
76794;BME280;65745;50.278;18.192;2024-03-02T13:00:51;99064.57;;;13.94;77.13
76794;BME280;65745;50.278;18.192;2024-03-02T13:03:39;99064.75;;;13.92;76.83
76794;BME280;65745;50.278;18.192;2024-03-02T13:06:12;99065.45;;;13.92;77.91
76794;BME280;65745;50.278;18.192;2024-03-02T13:08:44;99062.53;;;13.90;76.65
76794;BME280;65745;50.278;18.192;2024-03-02T13:11:17;99063.78;;;13.83;76.61
76794;BME280;65745;50.278;18.192;2024-03-02T13:13:50;99060.13;;;13.84;77.06
76794;BME280;65745;50.278;18.192;2024-03-02T13:16:24;99060.14;;;13.84;77.43
76794;BME280;65745;50.278;18.192;2024-03-02T13:19:03;99066.03;;;13.82;76.96
76794;BME280;65745;50.278;18.192;2024-03-02T13:21:35;99063.13;;;13.77;77.29